sensor_id;sensor_type;location;lat;lon;timestamp;temperature;humidity
45785;DHT22;31489;51.404;5.474;2023-02-28T00:01:12;5.80;51.00
45785;DHT22;31489;51.404;5.474;2023-02-28T00:03:38;5.80;51.00
45785;DHT22;31489;51.404;5.474;2023-02-28T00:06:05;5.80;51.00
45785;DHT22;31489;51.404;5.474;2023-02-28T00:08:31;5.70;51.00
45785;DHT22;31489;51.404;5.474;2023-02-28T00:11:04;5.70;51.00
45785;DHT22;31489;51.404;5.474;2023-02-28T00:13:35;5.70;51.20
45785;DHT22;31489;51.404;5.474;2023-02-28T00:16:03;5.70;51.10
45785;DHT22;31489;51.404;5.474;2023-02-28T00:18:29;5.60;51.10
45785;DHT22;31489;51.404;5.474;2023-02-28T00:20:55;5.60;51.20
45785;DHT22;31489;51.404;5.474;2023-02-28T00:23:23;5.60;51.20
45785;DHT22;31489;51.404;5.474;2023-02-28T00:25:49;5.60;51.30
45785;DHT22;31489;51.404;5.474;2023-02-28T00:28:18;5.60;51.40
45785;DHT22;31489;51.404;5.474;2023-02-28T00:30:44;5.50;51.40
45785;DHT22;31489;51.404;5.474;2023-02-28T00:33:09;5.50;51.40
45785;DHT22;31489;51.404;5.474;2023-02-28T00:35:35;5.50;51.50
45785;DHT22;31489;51.404;5.474;2023-02-28T00:38:01;5.50;51.60
45785;DHT22;31489;51.404;5.474;2023-02-28T00:40:27;5.40;51.50
45785;DHT22;31489;51.404;5.474;2023-02-28T00:42:53;5.40;51.70
45785;DHT22;31489;51.404;5.474;2023-02-28T00:45:19;5.40;51.70
45785;DHT22;31489;51.404;5.474;2023-02-28T00:47:44;5.40;51.80
45785;DHT22;31489;51.404;5.474;2023-02-28T00:50:11;5.40;51.80
45785;DHT22;31489;51.404;5.474;2023-02-28T00:52:37;5.40;51.80
45785;DHT22;31489;51.404;5.474;2023-02-28T00:55:06;5.40;51.90
45785;DHT22;31489;51.404;5.474;2023-02-28T00:57:31;5.30;52.00
45785;DHT22;31489;51.404;5.474;2023-02-28T00:59:57;5.30;51.90
45785;DHT22;31489;51.404;5.474;2023-02-28T01:02:25;5.40;52.00
45785;DHT22;31489;51.404;5.474;2023-02-28T01:04:51;5.30;52.00
45785;DHT22;31489;51.404;5.474;2023-02-28T01:07:17;5.30;52.10
45785;DHT22;31489;51.404;5.474;2023-02-28T01:09:42;5.30;52.10
45785;DHT22;31489;51.404;5.474;2023-02-28T01:12:08;5.30;52.10
45785;DHT22;31489;51.404;5.474;2023-02-28T01:14:34;5.30;52.10
45785;DHT22;31489;51.404;5.474;2023-02-28T01:17:00;5.30;52.10
45785;DHT22;31489;51.404;5.474;2023-02-28T01:19:26;5.20;52.10
45785;DHT22;31489;51.404;5.474;2023-02-28T01:21:51;5.30;52.20
45785;DHT22;31489;51.404;5.474;2023-02-28T01:24:17;5.20;52.20
45785;DHT22;31489;51.404;5.474;2023-02-28T01:26:43;5.20;52.20
45785;DHT22;31489;51.404;5.474;2023-02-28T01:29:08;5.20;52.30
45785;DHT22;31489;51.404;5.474;2023-02-28T01:31:34;5.10;52.80
45785;DHT22;31489;51.404;5.474;2023-02-28T01:34:00;5.10;52.40
45785;DHT22;31489;51.404;5.474;2023-02-28T01:36:26;5.10;52.40
45785;DHT22;31489;51.404;5.474;2023-02-28T01:38:52;5.10;52.50
45785;DHT22;31489;51.404;5.474;2023-02-28T01:41:26;5.10;53.20
45785;DHT22;31489;51.404;5.474;2023-02-28T01:43:57;5.10;52.70
45785;DHT22;31489;51.404;5.474;2023-02-28T01:46:23;5.10;52.60
45785;DHT22;31489;51.404;5.474;2023-02-28T01:48:58;5.10;52.60
45785;DHT22;31489;51.404;5.474;2023-02-28T01:51:29;5.00;53.40
45785;DHT22;31489;51.404;5.474;2023-02-28T01:54:00;5.10;52.80
45785;DHT22;31489;51.404;5.474;2023-02-28T01:56:30;5.00;52.80
45785;DHT22;31489;51.404;5.474;2023-02-28T01:58:58;5.00;52.70
45785;DHT22;31489;51.404;5.474;2023-02-28T02:01:26;5.00;52.70
45785;DHT22;31489;51.404;5.474;2023-02-28T02:03:58;5.00;52.80
45785;DHT22;31489;51.404;5.474;2023-02-28T02:06:28;5.00;52.90
45785;DHT22;31489;51.404;5.474;2023-02-28T02:08:54;5.00;52.80
45785;DHT22;31489;51.404;5.474;2023-02-28T02:11:22;5.00;52.90
45785;DHT22;31489;51.404;5.474;2023-02-28T02:14:04;4.90;52.90
45785;DHT22;31489;51.404;5.474;2023-02-28T02:37:40;4.90;53.40
45785;DHT22;31489;51.404;5.474;2023-02-28T02:40:11;4.90;53.40
45785;DHT22;31489;51.404;5.474;2023-02-28T02:43:03;4.90;53.30
45785;DHT22;31489;51.404;5.474;2023-02-28T02:45:34;4.90;53.60
45785;DHT22;31489;51.404;5.474;2023-02-28T02:48:06;4.90;53.30
45785;DHT22;31489;51.404;5.474;2023-02-28T02:50:39;4.80;53.40
45785;DHT22;31489;51.404;5.474;2023-02-28T02:53:08;4.90;53.50
45785;DHT22;31489;51.404;5.474;2023-02-28T02:55:42;4.90;53.40
45785;DHT22;31489;51.404;5.474;2023-02-28T02:58:14;4.80;53.50
45785;DHT22;31489;51.404;5.474;2023-02-28T03:00:52;4.90;53.40
45785;DHT22;31489;51.404;5.474;2023-02-28T03:03:19;4.80;53.50
45785;DHT22;31489;51.404;5.474;2023-02-28T03:05:57;4.80;53.30
45785;DHT22;31489;51.404;5.474;2023-02-28T03:08:24;4.90;53.40
45785;DHT22;31489;51.404;5.474;2023-02-28T03:10:52;4.80;53.40
45785;DHT22;31489;51.404;5.474;2023-02-28T03:13:45;4.80;53.40
45785;DHT22;31489;51.404;5.474;2023-02-28T03:16:49;4.80;53.70
45785;DHT22;31489;51.404;5.474;2023-02-28T03:22:45;4.80;53.60
45785;DHT22;31489;51.404;5.474;2023-02-28T03:25:20;4.80;53.60
45785;DHT22;31489;51.404;5.474;2023-02-28T03:30:31;4.80;54.00
45785;DHT22;31489;51.404;5.474;2023-02-28T03:35:34;4.80;54.00
45785;DHT22;31489;51.404;5.474;2023-02-28T03:38:12;4.80;54.00
45785;DHT22;31489;51.404;5.474;2023-02-28T03:40:45;4.80;54.00
45785;DHT22;31489;51.404;5.474;2023-02-28T03:43:18;4.80;54.00
45785;DHT22;31489;51.404;5.474;2023-02-28T03:45:45;4.80;54.00
45785;DHT22;31489;51.404;5.474;2023-02-28T03:50:40;4.90;54.10
45785;DHT22;31489;51.404;5.474;2023-02-28T03:53:11;4.90;54.20
45785;DHT22;31489;51.404;5.474;2023-02-28T03:55:45;4.90;54.20
45785;DHT22;31489;51.404;5.474;2023-02-28T04:01:04;5.00;54.30
45785;DHT22;31489;51.404;5.474;2023-02-28T04:03:33;5.10;54.20
45785;DHT22;31489;51.404;5.474;2023-02-28T04:05:59;5.10;54.10
45785;DHT22;31489;51.404;5.474;2023-02-28T04:08:27;5.10;54.10
45785;DHT22;31489;51.404;5.474;2023-02-28T04:11:06;5.20;54.20
45785;DHT22;31489;51.404;5.474;2023-02-28T04:13:34;5.20;54.30
45785;DHT22;31489;51.404;5.474;2023-02-28T04:15:59;5.20;54.00
45785;DHT22;31489;51.404;5.474;2023-02-28T04:18:25;5.20;54.10
45785;DHT22;31489;51.404;5.474;2023-02-28T04:20:51;5.30;54.10
45785;DHT22;31489;51.404;5.474;2023-02-28T04:23:16;5.30;54.00
45785;DHT22;31489;51.404;5.474;2023-02-28T04:25:42;5.30;54.00
45785;DHT22;31489;51.404;5.474;2023-02-28T04:28:08;5.30;54.00
45785;DHT22;31489;51.404;5.474;2023-02-28T04:30:35;5.40;54.00
45785;DHT22;31489;51.404;5.474;2023-02-28T04:33:01;5.40;54.00
45785;DHT22;31489;51.404;5.474;2023-02-28T04:35:27;5.40;54.00
45785;DHT22;31489;51.404;5.474;2023-02-28T04:37:52;5.40;54.00
45785;DHT22;31489;51.404;5.474;2023-02-28T04:40:18;5.40;54.00
45785;DHT22;31489;51.404;5.474;2023-02-28T04:42:44;5.40;54.00
45785;DHT22;31489;51.404;5.474;2023-02-28T04:45:10;5.40;54.00
45785;DHT22;31489;51.404;5.474;2023-02-28T04:47:36;5.40;54.10
45785;DHT22;31489;51.404;5.474;2023-02-28T04:50:02;5.40;54.10
45785;DHT22;31489;51.404;5.474;2023-02-28T04:52:29;5.50;54.10
45785;DHT22;31489;51.404;5.474;2023-02-28T04:54:55;5.50;54.10
45785;DHT22;31489;51.404;5.474;2023-02-28T04:57:20;5.50;54.10
45785;DHT22;31489;51.404;5.474;2023-02-28T04:59:46;5.50;54.10
45785;DHT22;31489;51.404;5.474;2023-02-28T05:02:12;5.50;54.00
45785;DHT22;31489;51.404;5.474;2023-02-28T05:04:37;5.50;54.00
45785;DHT22;31489;51.404;5.474;2023-02-28T05:07:03;5.50;54.00
45785;DHT22;31489;51.404;5.474;2023-02-28T05:09:29;5.50;54.00
45785;DHT22;31489;51.404;5.474;2023-02-28T05:11:55;5.60;54.10
45785;DHT22;31489;51.404;5.474;2023-02-28T05:14:21;5.60;54.20
45785;DHT22;31489;51.404;5.474;2023-02-28T05:16:47;5.60;54.20
45785;DHT22;31489;51.404;5.474;2023-02-28T05:19:12;5.60;54.10
45785;DHT22;31489;51.404;5.474;2023-02-28T05:21:40;5.60;54.20
45785;DHT22;31489;51.404;5.474;2023-02-28T05:24:09;5.60;54.10
45785;DHT22;31489;51.404;5.474;2023-02-28T05:26:37;5.60;54.20
45785;DHT22;31489;51.404;5.474;2023-02-28T05:29:03;5.60;54.10
45785;DHT22;31489;51.404;5.474;2023-02-28T05:31:29;5.60;54.10
45785;DHT22;31489;51.404;5.474;2023-02-28T05:33:54;5.60;54.10
45785;DHT22;31489;51.404;5.474;2023-02-28T05:36:20;5.70;54.20
45785;DHT22;31489;51.404;5.474;2023-02-28T05:38:50;5.70;54.10
45785;DHT22;31489;51.404;5.474;2023-02-28T05:41:16;5.70;54.20
45785;DHT22;31489;51.404;5.474;2023-02-28T05:43:42;5.70;54.10
45785;DHT22;31489;51.404;5.474;2023-02-28T05:46:10;5.70;54.10
45785;DHT22;31489;51.404;5.474;2023-02-28T05:48:38;5.70;54.20
45785;DHT22;31489;51.404;5.474;2023-02-28T05:51:04;5.70;54.00
45785;DHT22;31489;51.404;5.474;2023-02-28T05:53:31;5.70;54.10
45785;DHT22;31489;51.404;5.474;2023-02-28T05:55:57;5.70;54.00
45785;DHT22;31489;51.404;5.474;2023-02-28T05:58:23;5.70;54.00
45785;DHT22;31489;51.404;5.474;2023-02-28T06:00:51;5.80;54.00
45785;DHT22;31489;51.404;5.474;2023-02-28T06:03:16;5.70;53.90
45785;DHT22;31489;51.404;5.474;2023-02-28T06:05:42;5.70;53.80
45785;DHT22;31489;51.404;5.474;2023-02-28T06:08:08;5.80;53.80
45785;DHT22;31489;51.404;5.474;2023-02-28T06:10:34;5.70;53.70
45785;DHT22;31489;51.404;5.474;2023-02-28T06:13:01;5.70;53.70
45785;DHT22;31489;51.404;5.474;2023-02-28T06:15:28;5.70;53.70
45785;DHT22;31489;51.404;5.474;2023-02-28T06:17:54;5.70;53.80
45785;DHT22;31489;51.404;5.474;2023-02-28T06:20:22;5.60;53.70
45785;DHT22;31489;51.404;5.474;2023-02-28T06:22:55;5.60;53.80
45785;DHT22;31489;51.404;5.474;2023-02-28T06:25:21;5.60;53.90
45785;DHT22;31489;51.404;5.474;2023-02-28T06:27:47;5.60;54.00
45785;DHT22;31489;51.404;5.474;2023-02-28T06:30:14;5.60;54.00
45785;DHT22;31489;51.404;5.474;2023-02-28T06:32:39;5.60;54.00
45785;DHT22;31489;51.404;5.474;2023-02-28T06:35:05;5.60;54.10
45785;DHT22;31489;51.404;5.474;2023-02-28T06:37:32;5.60;54.20
45785;DHT22;31489;51.404;5.474;2023-02-28T06:39:58;5.60;54.20
45785;DHT22;31489;51.404;5.474;2023-02-28T06:42:24;5.60;54.20
45785;DHT22;31489;51.404;5.474;2023-02-28T06:44:55;5.60;54.10
45785;DHT22;31489;51.404;5.474;2023-02-28T06:47:21;5.60;54.20
45785;DHT22;31489;51.404;5.474;2023-02-28T06:49:46;5.60;54.20
45785;DHT22;31489;51.404;5.474;2023-02-28T06:52:12;5.60;54.10
45785;DHT22;31489;51.404;5.474;2023-02-28T06:54:38;5.60;54.10
45785;DHT22;31489;51.404;5.474;2023-02-28T06:57:04;5.60;54.10
45785;DHT22;31489;51.404;5.474;2023-02-28T06:59:30;5.60;54.00
45785;DHT22;31489;51.404;5.474;2023-02-28T07:01:55;5.60;54.00
45785;DHT22;31489;51.404;5.474;2023-02-28T07:04:21;5.70;54.00
45785;DHT22;31489;51.404;5.474;2023-02-28T07:06:47;5.70;54.00
45785;DHT22;31489;51.404;5.474;2023-02-28T07:09:13;5.60;53.90
45785;DHT22;31489;51.404;5.474;2023-02-28T07:11:39;5.60;53.90
45785;DHT22;31489;51.404;5.474;2023-02-28T07:14:05;5.70;53.90
45785;DHT22;31489;51.404;5.474;2023-02-28T07:16:30;5.70;53.90
45785;DHT22;31489;51.404;5.474;2023-02-28T07:18:56;5.60;53.80
45785;DHT22;31489;51.404;5.474;2023-02-28T07:21:22;5.70;53.80
45785;DHT22;31489;51.404;5.474;2023-02-28T07:23:50;5.70;53.90
45785;DHT22;31489;51.404;5.474;2023-02-28T07:26:19;5.70;53.90
45785;DHT22;31489;51.404;5.474;2023-02-28T07:28:47;5.70;53.90
45785;DHT22;31489;51.404;5.474;2023-02-28T07:31:14;5.80;53.70
45785;DHT22;31489;51.404;5.474;2023-02-28T07:33:40;5.80;53.60
45785;DHT22;31489;51.404;5.474;2023-02-28T07:36:08;5.90;53.40
45785;DHT22;31489;51.404;5.474;2023-02-28T07:38:35;5.90;53.30
45785;DHT22;31489;51.404;5.474;2023-02-28T07:41:02;5.90;53.20
45785;DHT22;31489;51.404;5.474;2023-02-28T07:43:31;6.00;53.00
45785;DHT22;31489;51.404;5.474;2023-02-28T07:46:02;6.00;52.80
45785;DHT22;31489;51.404;5.474;2023-02-28T07:48:28;6.00;52.70
45785;DHT22;31489;51.404;5.474;2023-02-28T07:50:55;6.10;52.50
45785;DHT22;31489;51.404;5.474;2023-02-28T07:53:21;6.10;52.60
45785;DHT22;31489;51.404;5.474;2023-02-28T07:55:47;6.10;52.50
45785;DHT22;31489;51.404;5.474;2023-02-28T07:58:13;6.10;52.50
45785;DHT22;31489;51.404;5.474;2023-02-28T08:00:39;6.10;52.50
45785;DHT22;31489;51.404;5.474;2023-02-28T08:03:04;6.20;52.50
45785;DHT22;31489;51.404;5.474;2023-02-28T08:05:30;6.20;52.20
45785;DHT22;31489;51.404;5.474;2023-02-28T08:07:56;6.20;52.10
45785;DHT22;31489;51.404;5.474;2023-02-28T08:10:22;6.30;52.10
45785;DHT22;31489;51.404;5.474;2023-02-28T08:12:49;6.30;51.80
45785;DHT22;31489;51.404;5.474;2023-02-28T08:15:14;6.30;51.50
45785;DHT22;31489;51.404;5.474;2023-02-28T08:17:40;6.40;51.40
45785;DHT22;31489;51.404;5.474;2023-02-28T08:20:06;6.40;51.20
45785;DHT22;31489;51.404;5.474;2023-02-28T08:22:32;6.40;51.00
45785;DHT22;31489;51.404;5.474;2023-02-28T08:24:58;6.50;51.00
45785;DHT22;31489;51.404;5.474;2023-02-28T08:27:24;6.50;50.70
45785;DHT22;31489;51.404;5.474;2023-02-28T08:29:49;6.50;50.50
45785;DHT22;31489;51.404;5.474;2023-02-28T08:32:15;6.50;50.50
45785;DHT22;31489;51.404;5.474;2023-02-28T08:34:41;6.50;50.40
45785;DHT22;31489;51.404;5.474;2023-02-28T08:37:06;6.60;50.20
45785;DHT22;31489;51.404;5.474;2023-02-28T08:39:36;6.60;50.10
45785;DHT22;31489;51.404;5.474;2023-02-28T08:42:02;6.60;49.90
45785;DHT22;31489;51.404;5.474;2023-02-28T08:44:28;6.60;49.50
45785;DHT22;31489;51.404;5.474;2023-02-28T08:46:54;6.60;49.20
45785;DHT22;31489;51.404;5.474;2023-02-28T08:49:20;6.70;49.30
45785;DHT22;31489;51.404;5.474;2023-02-28T08:51:46;6.70;49.40
45785;DHT22;31489;51.404;5.474;2023-02-28T08:54:12;6.70;49.10
45785;DHT22;31489;51.404;5.474;2023-02-28T08:56:38;6.70;49.00
45785;DHT22;31489;51.404;5.474;2023-02-28T08:59:04;6.70;49.10
45785;DHT22;31489;51.404;5.474;2023-02-28T09:01:34;6.80;49.10
45785;DHT22;31489;51.404;5.474;2023-02-28T09:04:04;6.80;48.70
45785;DHT22;31489;51.404;5.474;2023-02-28T09:06:32;6.80;48.30
45785;DHT22;31489;51.404;5.474;2023-02-28T09:08:58;6.90;47.80
45785;DHT22;31489;51.404;5.474;2023-02-28T09:11:25;6.90;47.30
45785;DHT22;31489;51.404;5.474;2023-02-28T09:13:50;6.90;47.30
45785;DHT22;31489;51.404;5.474;2023-02-28T09:16:17;7.00;47.40
45785;DHT22;31489;51.404;5.474;2023-02-28T09:18:43;7.00;47.60
45785;DHT22;31489;51.404;5.474;2023-02-28T09:21:12;7.00;47.30
45785;DHT22;31489;51.404;5.474;2023-02-28T09:23:42;7.10;47.50
45785;DHT22;31489;51.404;5.474;2023-02-28T09:26:25;7.10;47.00
45785;DHT22;31489;51.404;5.474;2023-02-28T09:28:54;7.20;46.10
45785;DHT22;31489;51.404;5.474;2023-02-28T09:31:25;7.20;46.60
45785;DHT22;31489;51.404;5.474;2023-02-28T09:33:53;7.30;46.60
45785;DHT22;31489;51.404;5.474;2023-02-28T09:36:20;7.30;46.40
45785;DHT22;31489;51.404;5.474;2023-02-28T09:38:46;7.30;46.70
45785;DHT22;31489;51.404;5.474;2023-02-28T09:41:25;7.40;46.50
45785;DHT22;31489;51.404;5.474;2023-02-28T09:43:56;7.50;46.30
45785;DHT22;31489;51.404;5.474;2023-02-28T09:46:35;7.50;46.60
45785;DHT22;31489;51.404;5.474;2023-02-28T09:49:14;7.60;46.30
45785;DHT22;31489;51.404;5.474;2023-02-28T09:51:51;7.60;44.90
45785;DHT22;31489;51.404;5.474;2023-02-28T09:54:21;7.70;45.30
45785;DHT22;31489;51.404;5.474;2023-02-28T10:05:40;7.90;43.80
45785;DHT22;31489;51.404;5.474;2023-02-28T10:08:24;8.00;44.40
45785;DHT22;31489;51.404;5.474;2023-02-28T10:11:16;8.10;44.00
45785;DHT22;31489;51.404;5.474;2023-02-28T10:14:13;8.10;44.10
45785;DHT22;31489;51.404;5.474;2023-02-28T10:16:50;8.20;43.10
45785;DHT22;31489;51.404;5.474;2023-02-28T10:19:23;8.40;45.30
45785;DHT22;31489;51.404;5.474;2023-02-28T10:21:57;8.50;44.70
45785;DHT22;31489;51.404;5.474;2023-02-28T10:24:41;8.70;44.20
45785;DHT22;31489;51.404;5.474;2023-02-28T10:27:25;9.00;45.00
45785;DHT22;31489;51.404;5.474;2023-02-28T10:29:56;9.40;45.10
45785;DHT22;31489;51.404;5.474;2023-02-28T10:32:25;9.90;44.90
45785;DHT22;31489;51.404;5.474;2023-02-28T10:35:16;10.40;45.90
45785;DHT22;31489;51.404;5.474;2023-02-28T10:37:48;10.90;45.60
45785;DHT22;31489;51.404;5.474;2023-02-28T10:45:28;13.00;43.80
45785;DHT22;31489;51.404;5.474;2023-02-28T10:48:02;13.70;44.30
45785;DHT22;31489;51.404;5.474;2023-02-28T10:50:50;14.40;43.10
45785;DHT22;31489;51.404;5.474;2023-02-28T10:53:28;15.00;41.70
45785;DHT22;31489;51.404;5.474;2023-02-28T11:01:44;16.80;39.10
45785;DHT22;31489;51.404;5.474;2023-02-28T11:07:02;17.80;37.30
45785;DHT22;31489;51.404;5.474;2023-02-28T11:09:34;18.30;37.40
45785;DHT22;31489;51.404;5.474;2023-02-28T11:12:02;18.70;35.90
45785;DHT22;31489;51.404;5.474;2023-02-28T11:14:32;19.10;36.10
45785;DHT22;31489;51.404;5.474;2023-02-28T11:17:13;19.40;35.40
45785;DHT22;31489;51.404;5.474;2023-02-28T11:19:45;19.80;33.80
45785;DHT22;31489;51.404;5.474;2023-02-28T11:22:18;20.00;33.60
45785;DHT22;31489;51.404;5.474;2023-02-28T11:24:47;20.20;33.00
45785;DHT22;31489;51.404;5.474;2023-02-28T11:28:06;20.40;32.70
45785;DHT22;31489;51.404;5.474;2023-02-28T11:30:41;20.60;33.60
45785;DHT22;31489;51.404;5.474;2023-02-28T11:33:20;20.80;31.50
45785;DHT22;31489;51.404;5.474;2023-02-28T11:35:48;20.90;36.30
45785;DHT22;31489;51.404;5.474;2023-02-28T11:38:15;21.10;32.60
45785;DHT22;31489;51.404;5.474;2023-02-28T11:46:31;21.40;30.00
45785;DHT22;31489;51.404;5.474;2023-02-28T11:49:23;21.50;30.70
45785;DHT22;31489;51.404;5.474;2023-02-28T11:55:07;21.80;30.00
45785;DHT22;31489;51.404;5.474;2023-02-28T12:03:26;21.90;29.90
45785;DHT22;31489;51.404;5.474;2023-02-28T12:08:58;21.90;29.30
45785;DHT22;31489;51.404;5.474;2023-02-28T12:11:34;21.90;28.50
45785;DHT22;31489;51.404;5.474;2023-02-28T12:25:47;21.70;28.90
45785;DHT22;31489;51.404;5.474;2023-02-28T12:28:17;21.80;28.80
45785;DHT22;31489;51.404;5.474;2023-02-28T12:31:10;21.90;28.70
45785;DHT22;31489;51.404;5.474;2023-02-28T12:33:42;21.90;28.40
45785;DHT22;31489;51.404;5.474;2023-02-28T12:36:11;22.00;28.20
45785;DHT22;31489;51.404;5.474;2023-02-28T12:39:05;22.00;28.30
45785;DHT22;31489;51.404;5.474;2023-02-28T12:41:40;22.00;27.70
45785;DHT22;31489;51.404;5.474;2023-02-28T12:44:17;22.00;27.60
45785;DHT22;31489;51.404;5.474;2023-02-28T12:46:50;21.90;27.60
45785;DHT22;31489;51.404;5.474;2023-02-28T12:49:21;21.80;27.40
45785;DHT22;31489;51.404;5.474;2023-02-28T12:51:50;21.70;27.50
45785;DHT22;31489;51.404;5.474;2023-02-28T12:54:25;21.60;27.40
45785;DHT22;31489;51.404;5.474;2023-02-28T12:57:09;21.50;27.40
45785;DHT22;31489;51.404;5.474;2023-02-28T13:08:08;21.30;28.00
45785;DHT22;31489;51.404;5.474;2023-02-28T13:10:46;21.30;27.70
45785;DHT22;31489;51.404;5.474;2023-02-28T13:13:17;21.30;28.00
45785;DHT22;31489;51.404;5.474;2023-02-28T13:21:03;21.10;27.30
45785;DHT22;31489;51.404;5.474;2023-02-28T13:23:58;21.10;27.60
45785;DHT22;31489;51.404;5.474;2023-02-28T13:29:02;21.00;27.60
45785;DHT22;31489;51.404;5.474;2023-02-28T13:31:29;21.00;27.50
45785;DHT22;31489;51.404;5.474;2023-02-28T13:36:31;20.90;27.50
45785;DHT22;31489;51.404;5.474;2023-02-28T13:39:02;20.90;27.20
45785;DHT22;31489;51.404;5.474;2023-02-28T13:44:19;20.80;27.30
45785;DHT22;31489;51.404;5.474;2023-02-28T13:49:32;20.80;27.60
45785;DHT22;31489;51.404;5.474;2023-02-28T14:04:03;20.50;27.60
45785;DHT22;31489;51.404;5.474;2023-02-28T14:06:31;20.40;27.70
45785;DHT22;31489;51.404;5.474;2023-02-28T14:09:24;20.30;27.50
45785;DHT22;31489;51.404;5.474;2023-02-28T14:11:52;20.20;27.40
45785;DHT22;31489;51.404;5.474;2023-02-28T14:17:14;20.10;27.70
45785;DHT22;31489;51.404;5.474;2023-02-28T14:19:41;20.00;27.60
45785;DHT22;31489;51.404;5.474;2023-02-28T14:22:29;20.00;27.40
45785;DHT22;31489;51.404;5.474;2023-02-28T14:33:19;19.60;27.30
45785;DHT22;31489;51.404;5.474;2023-02-28T14:38:51;19.40;27.30
45785;DHT22;31489;51.404;5.474;2023-02-28T14:41:26;19.30;27.70
45785;DHT22;31489;51.404;5.474;2023-02-28T14:43:59;19.20;27.50
45785;DHT22;31489;51.404;5.474;2023-02-28T14:46:37;19.20;27.80
45785;DHT22;31489;51.404;5.474;2023-02-28T14:49:05;19.10;27.60
45785;DHT22;31489;51.404;5.474;2023-02-28T14:51:32;19.10;27.90
45785;DHT22;31489;51.404;5.474;2023-02-28T14:54:00;19.00;27.70
45785;DHT22;31489;51.404;5.474;2023-02-28T14:56:35;19.00;27.60
45785;DHT22;31489;51.404;5.474;2023-02-28T14:59:05;19.00;27.20
45785;DHT22;31489;51.404;5.474;2023-02-28T15:01:31;18.90;27.70
45785;DHT22;31489;51.404;5.474;2023-02-28T15:04:04;18.80;27.80
45785;DHT22;31489;51.404;5.474;2023-02-28T15:06:31;18.70;27.30
45785;DHT22;31489;51.404;5.474;2023-02-28T15:09:09;18.70;27.40
45785;DHT22;31489;51.404;5.474;2023-02-28T15:11:35;18.60;27.30
45785;DHT22;31489;51.404;5.474;2023-02-28T15:14:03;18.40;27.50
45785;DHT22;31489;51.404;5.474;2023-02-28T15:16:35;18.30;27.70
45785;DHT22;31489;51.404;5.474;2023-02-28T15:19:20;18.00;27.50
45785;DHT22;31489;51.404;5.474;2023-02-28T15:21:50;17.80;27.80
45785;DHT22;31489;51.404;5.474;2023-02-28T15:27:09;17.30;27.90
45785;DHT22;31489;51.404;5.474;2023-02-28T15:30:06;17.10;28.20
45785;DHT22;31489;51.404;5.474;2023-02-28T15:32:36;16.90;28.20
45785;DHT22;31489;51.404;5.474;2023-02-28T15:37:54;16.40;28.60
45785;DHT22;31489;51.404;5.474;2023-02-28T15:40:27;16.30;28.90
45785;DHT22;31489;51.404;5.474;2023-02-28T15:43:13;16.10;28.80
45785;DHT22;31489;51.404;5.474;2023-02-28T15:45:49;16.00;28.90
45785;DHT22;31489;51.404;5.474;2023-02-28T15:48:21;15.80;29.20
45785;DHT22;31489;51.404;5.474;2023-02-28T15:50:54;15.60;28.70
45785;DHT22;31489;51.404;5.474;2023-02-28T15:53:30;15.50;29.20
45785;DHT22;31489;51.404;5.474;2023-02-28T15:55:58;15.30;29.20
45785;DHT22;31489;51.404;5.474;2023-02-28T15:58:25;15.30;29.60
45785;DHT22;31489;51.404;5.474;2023-02-28T16:01:08;15.10;29.60
45785;DHT22;31489;51.404;5.474;2023-02-28T16:03:46;14.90;29.60
45785;DHT22;31489;51.404;5.474;2023-02-28T16:08:57;14.60;29.40
45785;DHT22;31489;51.404;5.474;2023-02-28T16:11:23;14.40;29.80
45785;DHT22;31489;51.404;5.474;2023-02-28T16:13:50;14.30;30.10
45785;DHT22;31489;51.404;5.474;2023-02-28T16:16:22;14.20;30.00
45785;DHT22;31489;51.404;5.474;2023-02-28T16:18:48;14.10;30.00
45785;DHT22;31489;51.404;5.474;2023-02-28T16:21:14;14.10;30.20
45785;DHT22;31489;51.404;5.474;2023-02-28T16:23:41;14.00;30.30
45785;DHT22;31489;51.404;5.474;2023-02-28T16:26:07;13.90;30.20
45785;DHT22;31489;51.404;5.474;2023-02-28T16:28:36;13.90;30.60
45785;DHT22;31489;51.404;5.474;2023-02-28T16:31:08;13.80;30.70
45785;DHT22;31489;51.404;5.474;2023-02-28T16:33:36;13.70;30.50
45785;DHT22;31489;51.404;5.474;2023-02-28T16:36:02;13.60;30.60
45785;DHT22;31489;51.404;5.474;2023-02-28T16:38:27;13.50;30.80
45785;DHT22;31489;51.404;5.474;2023-02-28T16:40:58;13.50;30.80
45785;DHT22;31489;51.404;5.474;2023-02-28T16:43:25;13.40;30.80
45785;DHT22;31489;51.404;5.474;2023-02-28T16:45:56;13.30;30.70
45785;DHT22;31489;51.404;5.474;2023-02-28T16:48:25;13.20;30.70
45785;DHT22;31489;51.404;5.474;2023-02-28T16:50:51;13.10;31.20
45785;DHT22;31489;51.404;5.474;2023-02-28T16:53:17;13.00;31.30
45785;DHT22;31489;51.404;5.474;2023-02-28T16:55:43;12.90;31.10
45785;DHT22;31489;51.404;5.474;2023-02-28T16:58:14;12.90;31.50
45785;DHT22;31489;51.404;5.474;2023-02-28T17:00:40;12.80;31.50
45785;DHT22;31489;51.404;5.474;2023-02-28T17:03:25;12.80;31.60
45785;DHT22;31489;51.404;5.474;2023-02-28T17:05:51;12.70;31.90
45785;DHT22;31489;51.404;5.474;2023-02-28T17:08:17;12.70;31.90
45785;DHT22;31489;51.404;5.474;2023-02-28T17:10:42;12.70;32.10
45785;DHT22;31489;51.404;5.474;2023-02-28T17:13:08;12.60;32.20
45785;DHT22;31489;51.404;5.474;2023-02-28T17:15:35;12.50;32.10
45785;DHT22;31489;51.404;5.474;2023-02-28T17:18:02;12.50;32.40
45785;DHT22;31489;51.404;5.474;2023-02-28T17:20:38;12.40;32.30
45785;DHT22;31489;51.404;5.474;2023-02-28T17:23:04;12.40;32.50
45785;DHT22;31489;51.404;5.474;2023-02-28T17:25:30;12.30;32.50
45785;DHT22;31489;51.404;5.474;2023-02-28T17:27:56;12.30;32.60
45785;DHT22;31489;51.404;5.474;2023-02-28T17:30:24;12.20;32.80
45785;DHT22;31489;51.404;5.474;2023-02-28T17:32:55;12.10;32.90
45785;DHT22;31489;51.404;5.474;2023-02-28T17:35:22;12.10;32.90
45785;DHT22;31489;51.404;5.474;2023-02-28T17:37:50;12.10;33.30
45785;DHT22;31489;51.404;5.474;2023-02-28T17:40:20;12.00;33.20
45785;DHT22;31489;51.404;5.474;2023-02-28T17:42:46;11.90;33.20
45785;DHT22;31489;51.404;5.474;2023-02-28T17:45:13;11.90;33.30
45785;DHT22;31489;51.404;5.474;2023-02-28T17:47:46;11.80;33.20
45785;DHT22;31489;51.404;5.474;2023-02-28T17:50:15;11.80;33.30
45785;DHT22;31489;51.404;5.474;2023-02-28T17:52:41;11.70;33.30
45785;DHT22;31489;51.404;5.474;2023-02-28T17:55:08;11.60;33.50
45785;DHT22;31489;51.404;5.474;2023-02-28T17:57:34;11.50;34.10
45785;DHT22;31489;51.404;5.474;2023-02-28T17:59:59;11.50;33.80
45785;DHT22;31489;51.404;5.474;2023-02-28T18:02:25;11.30;33.80
45785;DHT22;31489;51.404;5.474;2023-02-28T18:04:52;11.30;33.90
45785;DHT22;31489;51.404;5.474;2023-02-28T18:07:19;11.20;34.00
45785;DHT22;31489;51.404;5.474;2023-02-28T18:09:46;11.10;34.00
45785;DHT22;31489;51.404;5.474;2023-02-28T18:12:11;11.10;34.80
45785;DHT22;31489;51.404;5.474;2023-02-28T18:14:37;11.00;34.20
45785;DHT22;31489;51.404;5.474;2023-02-28T18:17:03;10.90;34.40
45785;DHT22;31489;51.404;5.474;2023-02-28T18:19:28;10.80;34.40
45785;DHT22;31489;51.404;5.474;2023-02-28T18:21:54;10.80;34.60